createdAt,value
2019-04-21T00:00:55.181Z,41.60
2019-04-21T00:03:32.766Z,39.13
2019-04-21T00:06:15.647Z,48.47
2019-04-21T00:08:52.215Z,38.20
2019-04-21T00:11:22.596Z,40.97
2019-04-21T00:13:52.402Z,39.57
2019-04-21T00:19:07.137Z,37.83
2019-04-21T00:21:40.464Z,40.27
2019-04-21T00:24:24.248Z,43.13
2019-04-21T00:27:04.208Z,51.20
2019-04-21T00:32:08.656Z,40.87
2019-04-21T00:34:25.749Z,43.73
2019-04-21T00:37:11.255Z,54.13
2019-04-21T00:42:22.711Z,46.60
2019-04-21T00:44:59.157Z,38.13
2019-04-21T00:47:34.546Z,44.07
2019-04-21T00:50:07.587Z,54.87
2019-04-21T00:52:52.567Z,57.50
2019-04-21T00:55:29.417Z,55.15
2019-04-21T00:57:58.075Z,56.50
2019-04-21T01:00:27.734Z,57.63
2019-04-21T01:03:03.302Z,47.27
2019-04-21T01:05:42.796Z,59.57
2019-04-21T01:08:09.376Z,45.77
2019-04-21T01:10:34.740Z,48.60
2019-04-21T01:13:23.393Z,53.30
2019-04-21T01:15:53.000Z,57.27
2019-04-21T01:18:21.786Z,47.93
2019-04-21T01:20:36.390Z,42.87
2019-04-21T01:23:08.458Z,49.33
2019-04-21T01:25:50.068Z,44.90
2019-04-21T01:28:29.299Z,46.47
2019-04-21T01:31:11.101Z,49.87
2019-04-21T01:33:49.029Z,41.10
2019-04-21T01:36:14.472Z,44.37
2019-04-21T01:39:11.979Z,49.97
2019-04-21T01:41:25.506Z,51.80
2019-04-21T01:43:57.873Z,52.00
2019-04-21T01:46:25.660Z,36.37
2019-04-21T01:48:56.997Z,36.13
2019-04-21T01:51:45.374Z,37.63
2019-04-21T01:54:33.245Z,30.73
2019-04-21T01:57:01.951Z,34.80
2019-04-21T01:59:30.630Z,33.20
2019-04-21T02:02:10.754Z,35.83
2019-04-21T02:04:54.282Z,50.07
2019-04-21T02:07:20.846Z,63.40
2019-04-21T02:09:51.216Z,69.90
2019-04-21T02:12:26.675Z,76.30
2019-04-21T02:15:07.974Z,75.10
2019-04-21T02:17:31.044Z,66.83
2019-04-21T02:20:00.590Z,56.10
2019-04-21T02:22:57.484Z,55.93
2019-04-21T02:25:16.573Z,45.07
2019-04-21T02:27:49.904Z,59.80
2019-04-21T02:33:26.128Z,52.73
2019-04-21T02:35:52.747Z,49.83
2019-04-21T02:38:32.127Z,39.40
2019-04-21T02:40:46.606Z,40.33
2019-04-21T02:43:20.595Z,44.40
2019-04-21T02:45:56.186Z,51.63
2019-04-21T02:48:28.583Z,41.33
2019-04-21T02:50:49.970Z,39.47
2019-04-21T02:53:47.811Z,41.47
2019-04-21T02:56:13.852Z,51.20
2019-04-21T03:01:37.798Z,57.75
2019-04-21T03:06:53.765Z,66.60
2019-04-21T03:09:40.357Z,60.07
2019-04-21T03:12:07.020Z,63.73
2019-04-21T03:14:48.396Z,61.77
2019-04-21T03:17:06.788Z,54.18
2019-04-21T03:29:59.297Z,57.73
2019-04-21T03:37:36.899Z,63.73
2019-04-21T03:45:23.382Z,58.17
2019-04-21T03:47:53.158Z,50.65
2019-04-21T03:50:27.347Z,46.42
2019-04-21T03:53:03.477Z,49.00
2019-04-21T03:58:23.968Z,51.35
2019-04-21T04:01:05.995Z,53.55
2019-04-21T04:14:12.932Z,67.63
2019-04-21T04:16:38.048Z,74.47
2019-04-21T04:19:37.888Z,72.60
2019-04-21T04:29:33.012Z,68.57
2019-04-21T04:32:04.941Z,49.80
2019-04-21T04:40:10.667Z,37.38
2019-04-21T04:45:28.283Z,40.15
2019-04-21T04:47:36.984Z,55.20
2019-04-21T04:50:06.764Z,55.85
2019-04-21T04:55:19.210Z,32.03
2019-04-21T04:57:59.279Z,29.55
2019-04-21T05:00:34.594Z,27.07
2019-04-21T05:03:01.025Z,28.60
2019-04-21T05:06:28.595Z,26.42
2019-04-21T05:11:46.703Z,27.70
2019-04-21T05:14:03.129Z,27.07
2019-04-21T05:24:05.982Z,21.57
2019-04-21T05:26:36.304Z,22.75
2019-04-21T05:29:10.529Z,22.62
2019-04-21T05:32:14.053Z,24.05
2019-04-21T05:34:31.860Z,22.67
2019-04-21T05:37:14.251Z,23.95
2019-04-21T05:39:49.273Z,22.85
2019-04-21T05:42:25.025Z,21.75
2019-04-21T05:45:12.323Z,22.45
2019-04-21T05:47:58.472Z,23.05
2019-04-21T05:50:27.521Z,22.25
2019-04-21T05:52:58.595Z,23.90
2019-04-21T05:55:46.007Z,24.45
2019-04-21T05:58:11.277Z,29.20
2019-04-21T06:03:43.063Z,35.45
2019-04-21T06:08:53.972Z,26.85
2019-04-21T06:11:21.059Z,26.93
2019-04-21T06:13:57.545Z,29.07
2019-04-21T06:16:30.234Z,25.60
2019-04-21T06:19:03.407Z,21.33
2019-04-21T06:21:40.513Z,17.95
2019-04-21T06:24:13.100Z,20.40
2019-04-21T06:26:59.929Z,21.70
2019-04-21T06:29:28.569Z,20.27
2019-04-21T06:32:29.545Z,24.37
2019-04-21T06:34:49.641Z,19.07
2019-04-21T06:37:35.956Z,15.88
2019-04-21T06:42:18.627Z,13.20
2019-04-21T06:44:57.221Z,9.10
2019-04-21T06:47:47.369Z,8.30
2019-04-21T06:50:20.689Z,9.03
2019-04-21T06:52:56.227Z,6.72
2019-04-21T06:55:20.308Z,7.67
2019-04-21T06:58:00.685Z,8.03
2019-04-21T07:00:34.809Z,6.70
2019-04-21T07:03:17.444Z,4.90
2019-04-21T07:05:53.022Z,4.95
2019-04-21T07:08:29.390Z,5.58
2019-04-21T07:10:51.789Z,5.25
2019-04-21T07:13:29.059Z,6.62
2019-04-21T07:16:07.177Z,5.28
2019-04-21T07:18:42.467Z,6.33
2019-04-21T07:21:09.571Z,5.35
2019-04-21T07:23:45.984Z,5.60
2019-04-21T07:26:19.424Z,6.42
2019-04-21T07:31:33.964Z,5.97
2019-04-21T07:34:22.654Z,6.53
2019-04-21T07:36:45.044Z,4.42
2019-04-21T07:39:15.300Z,7.53
2019-04-21T07:41:43.797Z,6.55
2019-04-21T07:44:16.990Z,6.78
2019-04-21T07:46:44.075Z,11.15
2019-04-21T07:49:41.493Z,7.53
2019-04-21T07:52:44.691Z,5.72
2019-04-21T07:55:20.252Z,6.87
2019-04-21T07:57:39.549Z,7.47
2019-04-21T08:00:36.862Z,5.30
2019-04-21T08:03:12.889Z,5.17
2019-04-21T08:05:39.183Z,5.97
2019-04-21T08:08:05.986Z,6.25
2019-04-21T08:10:41.579Z,7.53
2019-04-21T08:13:28.806Z,5.62
2019-04-21T08:15:52.807Z,8.70
2019-04-21T08:18:30.096Z,6.87
2019-04-21T08:21:00.800Z,8.60
2019-04-21T08:23:37.131Z,5.75
2019-04-21T08:26:07.724Z,7.53
2019-04-21T08:28:56.431Z,6.37
2019-04-21T08:31:32.309Z,11.48
2019-04-21T08:34:08.239Z,7.83
2019-04-21T08:36:35.621Z,11.65
2019-04-21T08:39:13.183Z,7.25
2019-04-21T08:41:43.950Z,8.13
2019-04-21T08:44:20.507Z,8.45
2019-04-21T08:46:52.571Z,8.50
2019-04-21T08:49:26.596Z,8.65
2019-04-21T08:52:13.750Z,5.67
2019-04-21T08:54:43.972Z,7.37
2019-04-21T08:57:46.448Z,8.55
2019-04-21T09:00:12.560Z,6.65
2019-04-21T09:03:01.773Z,6.78
2019-04-21T09:05:29.724Z,6.85
2019-04-21T09:08:05.291Z,7.83
2019-04-21T09:10:39.621Z,7.20
2019-04-21T09:13:10.182Z,6.35
2019-04-21T09:15:47.986Z,6.80
2019-04-21T09:18:18.808Z,6.70
2019-04-21T09:21:02.670Z,7.75
2019-04-21T09:23:36.437Z,29.72
2019-04-21T09:26:14.172Z,5.22
2019-04-21T09:28:39.612Z,8.05
2019-04-21T09:31:05.303Z,6.33
2019-04-21T09:33:46.721Z,9.25
2019-04-21T09:36:18.023Z,6.58
2019-04-21T09:38:58.694Z,6.45
2019-04-21T09:41:24.258Z,9.48
2019-04-21T09:43:59.739Z,6.37
2019-04-21T09:46:43.263Z,6.50
2019-04-21T09:49:15.634Z,9.15
2019-04-21T09:51:47.966Z,6.92
2019-04-21T09:54:45.839Z,9.60
2019-04-21T09:57:24.299Z,5.62
2019-04-21T09:59:55.759Z,7.47
2019-04-21T10:02:34.231Z,9.75
2019-04-21T10:04:57.355Z,9.45
2019-04-21T10:07:34.994Z,6.62
2019-04-21T10:10:10.773Z,3.45
2019-04-21T10:12:43.938Z,6.42
2019-04-21T10:15:16.539Z,7.05
2019-04-21T10:17:49.971Z,8.18
2019-04-21T10:20:22.481Z,8.65
2019-04-21T10:22:59.419Z,6.17
2019-04-21T10:25:34.575Z,6.62
2019-04-21T10:28:10.949Z,6.60
2019-04-21T10:30:46.796Z,6.17
2019-04-21T10:35:50.942Z,7.95
2019-04-21T10:38:33.281Z,8.03
2019-04-21T10:43:37.491Z,7.37
2019-04-21T10:46:12.917Z,9.15
2019-04-21T10:48:46.348Z,8.18
2019-04-21T10:51:21.121Z,6.15
2019-04-21T10:53:55.978Z,10.20
2019-04-21T10:56:36.373Z,8.95
2019-04-21T10:59:05.225Z,7.75
2019-04-21T11:01:37.009Z,10.35
2019-04-21T11:04:26.933Z,8.28
2019-04-21T11:06:58.276Z,4.83
2019-04-21T11:09:29.542Z,7.00
2019-04-21T11:12:04.070Z,7.78
2019-04-21T11:14:37.296Z,7.17
2019-04-21T11:17:12.597Z,6.67
2019-04-21T11:19:44.228Z,8.00
2019-04-21T11:22:23.070Z,5.92
2019-04-21T11:24:56.660Z,7.15
2019-04-21T11:27:28.837Z,7.95
2019-04-21T11:30:02.254Z,9.88
2019-04-21T11:32:37.179Z,7.05
2019-04-21T11:35:09.651Z,8.38
2019-04-21T11:37:42.103Z,6.53
2019-04-21T11:40:17.623Z,7.17
2019-04-21T11:42:51.452Z,8.25
2019-04-21T11:45:34.739Z,5.75
2019-04-21T11:48:14.375Z,6.08
2019-04-21T11:50:50.945Z,8.18
2019-04-21T11:53:25.238Z,8.10
2019-04-21T11:55:59.140Z,6.53
2019-04-21T11:58:34.058Z,10.45
2019-04-21T12:01:07.692Z,5.37
2019-04-21T12:03:43.574Z,6.62
2019-04-21T12:06:15.524Z,7.42
2019-04-21T12:08:50.830Z,8.85
2019-04-21T12:11:23.269Z,10.53
2019-04-21T12:13:56.233Z,7.67
2019-04-21T12:16:28.757Z,7.70
2019-04-21T12:19:02.757Z,3.05
2019-04-21T12:21:47.893Z,7.58
2019-04-21T12:24:09.033Z,3.95
2019-04-21T12:26:42.206Z,8.85
2019-04-21T12:29:14.632Z,7.80
2019-04-21T12:32:07.604Z,7.30
2019-04-21T12:34:39.793Z,7.83
2019-04-21T12:37:17.079Z,8.78
2019-04-21T12:39:50.621Z,6.75
2019-04-21T12:44:57.218Z,8.08
2019-04-21T12:47:30.198Z,6.28
2019-04-21T12:50:02.753Z,5.92
2019-04-21T12:52:36.028Z,7.25
2019-04-21T12:55:09.339Z,4.85
2019-04-21T12:57:41.543Z,6.05
2019-04-21T13:00:15.286Z,5.83
2019-04-21T13:02:47.753Z,7.00
2019-04-21T13:05:19.968Z,5.53
2019-04-21T13:07:51.783Z,6.35
2019-04-21T13:10:24.282Z,5.62
2019-04-21T13:12:57.009Z,9.18
2019-04-21T13:15:29.354Z,8.25
2019-04-21T13:18:02.593Z,8.03
2019-04-21T13:20:36.364Z,7.28
2019-04-21T13:23:08.143Z,8.25
2019-04-21T13:25:39.785Z,6.42
2019-04-21T13:28:14.526Z,8.63
2019-04-21T13:30:48.595Z,10.20
2019-04-21T13:33:21.057Z,5.67
2019-04-21T13:36:02.841Z,7.62
2019-04-21T13:38:49.213Z,7.10
2019-04-21T13:41:31.411Z,8.00
2019-04-21T13:43:50.858Z,7.67
2019-04-21T13:46:24.937Z,6.87
2019-04-21T13:48:56.778Z,6.85
2019-04-21T13:51:31.174Z,7.42
2019-04-21T13:54:07.426Z,8.98
2019-04-21T13:56:40.723Z,7.05
2019-04-21T13:59:14.032Z,8.53
2019-04-21T14:01:47.688Z,6.05
2019-04-21T14:04:23.374Z,6.78
2019-04-21T14:06:56.396Z,7.37
2019-04-21T14:09:40.410Z,7.20
2019-04-21T14:12:05.451Z,7.53
2019-04-21T14:14:38.534Z,7.37
2019-04-21T14:17:11.241Z,10.32
2019-04-21T14:19:45.611Z,5.37
2019-04-21T14:22:20.629Z,7.00
2019-04-21T14:24:54.159Z,6.97
2019-04-21T14:27:26.004Z,7.12
2019-04-21T14:30:00.710Z,9.03
2019-04-21T14:32:38.056Z,6.95
2019-04-21T14:35:10.929Z,8.68
2019-04-21T14:40:22.511Z,7.22
2019-04-21T14:42:54.046Z,9.05
2019-04-21T14:45:30.978Z,8.90
2019-04-21T14:48:09.209Z,8.58
2019-04-21T14:50:48.334Z,8.85
2019-04-21T14:53:23.782Z,8.18
2019-04-21T14:55:59.448Z,8.20
2019-04-21T14:58:32.938Z,8.93
2019-04-21T15:01:08.618Z,9.95
2019-04-21T15:06:13.521Z,11.60
2019-04-21T15:08:47.137Z,7.50
2019-04-21T15:11:22.164Z,9.13
2019-04-21T15:13:53.785Z,9.23
2019-04-21T15:16:25.328Z,9.48
2019-04-21T15:18:59.159Z,7.05
2019-04-21T15:21:40.601Z,7.97
2019-04-21T15:24:18.330Z,9.13
2019-04-21T15:26:52.541Z,7.87
2019-04-21T15:29:24.631Z,8.78
2019-04-21T15:31:58.697Z,13.40
2019-04-21T15:34:31.872Z,9.88
2019-04-21T15:37:08.226Z,9.28
2019-04-21T15:39:51.460Z,14.00
2019-04-21T15:42:32.656Z,10.28
2019-04-21T15:45:12.669Z,10.78
2019-04-21T15:47:47.667Z,12.88
2019-04-21T15:50:26.505Z,11.18
2019-04-21T15:53:01.434Z,11.53
2019-04-21T15:55:48.655Z,9.60
2019-04-21T15:58:35.047Z,8.95
2019-04-21T16:01:16.489Z,12.65
2019-04-21T16:03:52.509Z,15.43
2019-04-21T16:06:25.686Z,17.70
2019-04-21T16:09:06.118Z,13.85
2019-04-21T16:11:39.937Z,16.27
2019-04-21T16:14:14.478Z,15.53
2019-04-21T16:16:47.456Z,14.68
2019-04-21T16:19:20.803Z,12.23
2019-04-21T16:21:52.906Z,18.87
2019-04-21T16:24:27.466Z,19.10
2019-04-21T16:27:04.863Z,17.12
2019-04-21T16:29:39.821Z,18.32
2019-04-21T16:32:14.617Z,18.62
2019-04-21T16:34:55.703Z,18.17
2019-04-21T16:37:21.649Z,21.30
2019-04-21T16:39:59.069Z,21.17
2019-04-21T16:42:32.157Z,19.80
2019-04-21T16:45:07.290Z,20.68
2019-04-21T16:47:40.226Z,25.43
2019-04-21T16:50:13.977Z,23.18
2019-04-21T16:52:49.921Z,25.50
2019-04-21T16:55:41.466Z,22.93
2019-04-21T16:58:28.930Z,24.18
2019-04-21T17:01:08.306Z,22.25
2019-04-21T17:03:37.420Z,23.50
2019-04-21T17:06:13.264Z,22.27
2019-04-21T17:08:47.043Z,28.00
2019-04-21T17:11:25.703Z,22.93
2019-04-21T17:13:54.237Z,24.50
2019-04-21T17:16:48.314Z,23.70
2019-04-21T17:19:13.584Z,24.75
2019-04-21T17:21:37.628Z,28.35
2019-04-21T17:24:10.655Z,28.00
2019-04-21T17:26:46.044Z,29.72
2019-04-21T17:29:18.766Z,26.70
2019-04-21T17:31:53.294Z,23.25
2019-04-21T17:34:29.347Z,24.57
2019-04-21T17:37:03.497Z,29.37
2019-04-21T17:39:40.711Z,23.85
2019-04-21T17:42:27.521Z,28.70
2019-04-21T17:44:51.043Z,28.90
2019-04-21T17:47:39.417Z,28.52
2019-04-21T17:50:07.666Z,35.15
2019-04-21T17:52:53.939Z,31.37
2019-04-21T17:55:28.301Z,35.85
2019-04-21T17:58:21.690Z,30.32
2019-04-21T18:01:10.873Z,28.23
2019-04-21T18:03:46.177Z,29.70
2019-04-21T18:06:07.455Z,27.35
2019-04-21T18:08:50.677Z,26.77
2019-04-21T18:11:15.388Z,28.60
2019-04-21T18:13:39.573Z,27.73
2019-04-21T18:16:23.002Z,32.83
2019-04-21T18:18:46.632Z,30.82
2019-04-21T18:21:20.951Z,28.80
2019-04-21T18:26:41.809Z,31.30
2019-04-21T18:31:44.817Z,30.45
2019-04-21T18:34:17.832Z,34.67
2019-04-21T18:36:57.523Z,32.63
2019-04-21T18:39:59.981Z,33.73
2019-04-21T18:42:42.221Z,37.85
2019-04-21T18:48:04.851Z,31.57
2019-04-21T18:50:45.849Z,35.48
2019-04-21T18:53:41.429Z,32.58
2019-04-21T18:56:05.271Z,30.45
2019-04-21T18:58:38.159Z,33.18
2019-04-21T19:01:18.263Z,35.38
2019-04-21T19:03:50.081Z,31.40
2019-04-21T19:06:43.132Z,38.23
2019-04-21T19:09:14.300Z,30.57
2019-04-21T19:11:53.486Z,38.40
2019-04-21T19:14:39.366Z,33.05
2019-04-21T19:17:48.548Z,34.65
2019-04-21T19:20:07.426Z,29.32
2019-04-21T19:22:33.005Z,32.75
2019-04-21T19:25:13.100Z,36.23
2019-04-21T19:27:50.279Z,31.87
2019-04-21T19:30:36.632Z,30.68
2019-04-21T19:33:06.917Z,28.25
2019-04-21T19:35:23.593Z,30.55
2019-04-21T19:38:06.667Z,31.20
2019-04-21T19:40:52.253Z,30.32
2019-04-21T19:43:31.483Z,29.82
2019-04-21T19:46:04.531Z,30.43
2019-04-21T19:48:44.470Z,32.53
2019-04-21T19:51:15.164Z,34.45
2019-04-21T19:53:44.607Z,30.70
2019-04-21T19:56:14.144Z,36.90
2019-04-21T19:58:51.256Z,35.83
2019-04-21T20:01:25.489Z,37.38
2019-04-21T20:04:02.937Z,35.08
2019-04-21T20:06:52.271Z,30.97
2019-04-21T20:09:37.041Z,30.97
2019-04-21T20:12:13.139Z,30.60
2019-04-21T20:14:57.640Z,27.67
2019-04-21T20:17:18.850Z,30.57
2019-04-21T20:19:40.303Z,30.77
2019-04-21T20:22:14.863Z,29.48
2019-04-21T20:25:00.166Z,27.00
2019-04-21T20:27:38.848Z,26.90
2019-04-21T20:30:21.880Z,25.57
2019-04-21T20:32:56.596Z,27.52
2019-04-21T20:37:59.119Z,29.82
2019-04-21T20:40:30.911Z,28.40
2019-04-21T20:43:19.322Z,26.57
2019-04-21T20:45:56.334Z,26.35
2019-04-21T20:48:13.789Z,31.15
2019-04-21T20:51:01.928Z,27.20
2019-04-21T20:53:33.009Z,25.02
2019-04-21T20:56:04.702Z,28.40
2019-04-21T20:58:45.181Z,26.45
2019-04-21T21:03:56.124Z,25.10
2019-04-21T21:06:26.060Z,28.52
2019-04-21T21:09:01.356Z,30.00
2019-04-21T21:11:29.347Z,29.80
2019-04-21T21:14:14.636Z,33.85
2019-04-21T21:16:47.701Z,31.02
2019-04-21T21:19:23.617Z,29.85
2019-04-21T21:21:49.700Z,26.65
2019-04-21T21:24:33.217Z,31.60
2019-04-21T21:26:58.109Z,28.50
2019-04-21T21:29:45.179Z,26.75
2019-04-21T21:32:15.190Z,31.25
2019-04-21T21:34:40.995Z,31.80
2019-04-21T21:37:21.621Z,32.63
2019-04-21T21:39:57.246Z,33.60
2019-04-21T21:42:08.086Z,29.45
2019-04-21T21:44:49.525Z,33.20
2019-04-21T21:47:27.991Z,36.00
2019-04-21T21:50:01.241Z,35.10
2019-04-21T21:52:36.701Z,33.13
2019-04-21T21:54:55.995Z,34.73
2019-04-21T21:57:32.959Z,30.75
2019-04-21T22:00:04.737Z,31.45
2019-04-21T22:02:45.339Z,34.55
2019-04-21T22:05:16.794Z,34.73
2019-04-21T22:07:46.602Z,31.95
2019-04-21T22:10:20.111Z,37.45
2019-04-21T22:13:02.281Z,40.83
2019-04-21T22:15:32.017Z,34.27
2019-04-21T22:18:24.701Z,36.25
2019-04-21T22:20:55.161Z,34.10
2019-04-21T22:23:12.995Z,33.60
2019-04-21T22:25:43.906Z,34.80
2019-04-21T22:28:15.738Z,34.95
2019-04-21T22:30:51.830Z,36.00
2019-04-21T22:33:25.902Z,32.40
2019-04-21T22:36:09.846Z,35.23
2019-04-21T22:38:47.734Z,37.98
2019-04-21T22:41:18.921Z,32.38
2019-04-21T22:43:44.392Z,34.80
2019-04-21T22:46:15.448Z,38.30
2019-04-21T22:48:53.172Z,39.18
2019-04-21T22:51:30.174Z,33.10
2019-04-21T22:53:57.534Z,36.28
2019-04-21T22:56:32.026Z,36.35
2019-04-21T22:59:04.230Z,30.72
2019-04-21T23:01:41.289Z,35.80
2019-04-21T23:04:10.686Z,37.50
2019-04-21T23:06:44.522Z,30.62
2019-04-21T23:09:16.958Z,26.20
2019-04-21T23:11:52.600Z,29.77
2019-04-21T23:14:23.744Z,31.25
2019-04-21T23:17:14.951Z,27.85
2019-04-21T23:19:43.770Z,34.60
2019-04-21T23:22:21.467Z,29.30
2019-04-21T23:25:00.503Z,33.08
2019-04-21T23:27:23.292Z,31.27
2019-04-21T23:30:09.755Z,30.27
2019-04-21T23:32:31.892Z,31.30
2019-04-21T23:34:54.022Z,28.65
2019-04-21T23:37:26.096Z,25.68
2019-04-21T23:40:03.755Z,29.85
2019-04-21T23:42:38.002Z,29.67
2019-04-21T23:45:09.189Z,30.35
2019-04-21T23:48:00.672Z,30.90
2019-04-21T23:50:30.467Z,33.45
2019-04-21T23:52:53.482Z,27.75
2019-04-21T23:55:25.409Z,29.60
2019-04-21T23:58:07.129Z,30.97
